sensor_id;sensor_type;location;lat;lon;timestamp;P1;durP1;ratioP1;P2;durP2;ratioP2
71083;SDS011;58741;52.672;13.548;2023-03-02T00:00:41;2.33;;;1.00;;
71083;SDS011;58741;52.672;13.548;2023-03-02T00:03:09;1.60;;;0.80;;
71083;SDS011;58741;52.672;13.548;2023-03-02T00:05:35;1.45;;;0.82;;
71083;SDS011;58741;52.672;13.548;2023-03-02T00:08:02;1.58;;;0.52;;
71083;SDS011;58741;52.672;13.548;2023-03-02T00:10:29;2.70;;;0.93;;
71083;SDS011;58741;52.672;13.548;2023-03-02T00:12:55;0.70;;;0.50;;
71083;SDS011;58741;52.672;13.548;2023-03-02T00:15:22;0.95;;;0.47;;
71083;SDS011;58741;52.672;13.548;2023-03-02T00:17:48;1.50;;;0.95;;
71083;SDS011;58741;52.672;13.548;2023-03-02T00:20:13;1.10;;;0.95;;
71083;SDS011;58741;52.672;13.548;2023-03-02T00:22:42;0.73;;;0.70;;
71083;SDS011;58741;52.672;13.548;2023-03-02T00:25:10;0.60;;;0.50;;
71083;SDS011;58741;52.672;13.548;2023-03-02T00:27:36;1.80;;;1.10;;
71083;SDS011;58741;52.672;13.548;2023-03-02T00:30:02;1.00;;;0.82;;
71083;SDS011;58741;52.672;13.548;2023-03-02T00:32:29;1.40;;;0.95;;
71083;SDS011;58741;52.672;13.548;2023-03-02T00:34:54;0.95;;;0.60;;
71083;SDS011;58741;52.672;13.548;2023-03-02T00:37:20;1.27;;;1.08;;
71083;SDS011;58741;52.672;13.548;2023-03-02T00:39:46;0.82;;;0.57;;
71083;SDS011;58741;52.672;13.548;2023-03-02T00:42:11;0.70;;;0.55;;
71083;SDS011;58741;52.672;13.548;2023-03-02T00:44:37;2.20;;;1.50;;
71083;SDS011;58741;52.672;13.548;2023-03-02T00:47:02;0.90;;;0.85;;
71083;SDS011;58741;52.672;13.548;2023-03-02T00:49:28;3.25;;;1.17;;
71083;SDS011;58741;52.672;13.548;2023-03-02T00:51:53;0.88;;;0.70;;
71083;SDS011;58741;52.672;13.548;2023-03-02T00:54:19;3.40;;;1.48;;
71083;SDS011;58741;52.672;13.548;2023-03-02T00:56:44;1.35;;;0.98;;
71083;SDS011;58741;52.672;13.548;2023-03-02T00:59:11;2.58;;;1.58;;
71083;SDS011;58741;52.672;13.548;2023-03-02T01:02:06;2.47;;;0.93;;
71083;SDS011;58741;52.672;13.548;2023-03-02T01:04:33;5.55;;;1.52;;
71083;SDS011;58741;52.672;13.548;2023-03-02T01:07:05;2.53;;;1.58;;
71083;SDS011;58741;52.672;13.548;2023-03-02T01:09:35;3.88;;;1.92;;
71083;SDS011;58741;52.672;13.548;2023-03-02T01:12:01;2.80;;;1.60;;
71083;SDS011;58741;52.672;13.548;2023-03-02T01:14:27;2.55;;;1.17;;
71083;SDS011;58741;52.672;13.548;2023-03-02T01:16:53;2.22;;;1.30;;
71083;SDS011;58741;52.672;13.548;2023-03-02T01:19:18;2.75;;;1.73;;
71083;SDS011;58741;52.672;13.548;2023-03-02T01:21:44;8.27;;;1.85;;
71083;SDS011;58741;52.672;13.548;2023-03-02T01:24:10;2.35;;;1.63;;
71083;SDS011;58741;52.672;13.548;2023-03-02T01:26:35;4.65;;;1.40;;
71083;SDS011;58741;52.672;13.548;2023-03-02T01:29:03;3.60;;;1.60;;
71083;SDS011;58741;52.672;13.548;2023-03-02T01:31:29;2.58;;;1.33;;
71083;SDS011;58741;52.672;13.548;2023-03-02T01:33:55;3.55;;;1.27;;
71083;SDS011;58741;52.672;13.548;2023-03-02T01:36:21;3.22;;;1.83;;
71083;SDS011;58741;52.672;13.548;2023-03-02T01:38:47;3.20;;;1.35;;
71083;SDS011;58741;52.672;13.548;2023-03-02T01:41:14;2.60;;;1.77;;
71083;SDS011;58741;52.672;13.548;2023-03-02T01:43:39;2.30;;;1.48;;
71083;SDS011;58741;52.672;13.548;2023-03-02T01:46:05;1.63;;;1.15;;
71083;SDS011;58741;52.672;13.548;2023-03-02T01:48:46;2.10;;;1.40;;
71083;SDS011;58741;52.672;13.548;2023-03-02T01:51:23;2.65;;;1.73;;
71083;SDS011;58741;52.672;13.548;2023-03-02T01:53:54;4.03;;;1.73;;
71083;SDS011;58741;52.672;13.548;2023-03-02T01:56:27;3.60;;;1.73;;
71083;SDS011;58741;52.672;13.548;2023-03-02T01:58:57;2.30;;;1.55;;
71083;SDS011;58741;52.672;13.548;2023-03-02T02:01:31;2.50;;;1.35;;
71083;SDS011;58741;52.672;13.548;2023-03-02T02:03:58;2.00;;;1.52;;
71083;SDS011;58741;52.672;13.548;2023-03-02T02:09:01;2.63;;;1.52;;
71083;SDS011;58741;52.672;13.548;2023-03-02T02:11:29;2.13;;;1.45;;
71083;SDS011;58741;52.672;13.548;2023-03-02T02:13:58;4.55;;;1.83;;
71083;SDS011;58741;52.672;13.548;2023-03-02T02:16:26;2.65;;;1.58;;
71083;SDS011;58741;52.672;13.548;2023-03-02T02:18:55;5.35;;;1.95;;
71083;SDS011;58741;52.672;13.548;2023-03-02T02:21:21;2.97;;;1.77;;
71083;SDS011;58741;52.672;13.548;2023-03-02T02:23:55;5.35;;;2.22;;
71083;SDS011;58741;52.672;13.548;2023-03-02T02:26:42;3.65;;;1.63;;
71083;SDS011;58741;52.672;13.548;2023-03-02T02:29:20;4.05;;;1.70;;
71083;SDS011;58741;52.672;13.548;2023-03-02T02:32:05;3.10;;;2.05;;
71083;SDS011;58741;52.672;13.548;2023-03-02T02:34:50;6.63;;;2.30;;
71083;SDS011;58741;52.672;13.548;2023-03-02T02:37:23;4.00;;;1.85;;
71083;SDS011;58741;52.672;13.548;2023-03-02T02:39:53;2.90;;;1.95;;
71083;SDS011;58741;52.672;13.548;2023-03-02T02:42:22;3.25;;;2.08;;
71083;SDS011;58741;52.672;13.548;2023-03-02T02:44:53;3.90;;;2.05;;
71083;SDS011;58741;52.672;13.548;2023-03-02T02:47:21;3.40;;;1.58;;
71083;SDS011;58741;52.672;13.548;2023-03-02T02:49:49;4.32;;;1.67;;
71083;SDS011;58741;52.672;13.548;2023-03-02T02:52:18;3.45;;;2.08;;
71083;SDS011;58741;52.672;13.548;2023-03-02T02:54:47;2.35;;;1.33;;
71083;SDS011;58741;52.672;13.548;2023-03-02T02:57:16;3.67;;;2.08;;
71083;SDS011;58741;52.672;13.548;2023-03-02T02:59:44;4.68;;;1.73;;
71083;SDS011;58741;52.672;13.548;2023-03-02T03:02:17;4.20;;;1.88;;
71083;SDS011;58741;52.672;13.548;2023-03-02T03:04:45;4.22;;;2.10;;
71083;SDS011;58741;52.672;13.548;2023-03-02T03:07:12;3.08;;;2.00;;
71083;SDS011;58741;52.672;13.548;2023-03-02T03:09:44;7.05;;;1.90;;
71083;SDS011;58741;52.672;13.548;2023-03-02T03:12:17;3.70;;;2.15;;
71083;SDS011;58741;52.672;13.548;2023-03-02T03:14:46;3.40;;;2.17;;
71083;SDS011;58741;52.672;13.548;2023-03-02T03:17:12;2.65;;;1.70;;
71083;SDS011;58741;52.672;13.548;2023-03-02T03:19:42;3.70;;;1.88;;
71083;SDS011;58741;52.672;13.548;2023-03-02T03:22:10;3.75;;;2.25;;
71083;SDS011;58741;52.672;13.548;2023-03-02T03:24:37;7.65;;;2.78;;
71083;SDS011;58741;52.672;13.548;2023-03-02T03:27:06;3.63;;;2.13;;
71083;SDS011;58741;52.672;13.548;2023-03-02T03:29:36;2.70;;;1.83;;
71083;SDS011;58741;52.672;13.548;2023-03-02T03:32:05;4.57;;;2.58;;
71083;SDS011;58741;52.672;13.548;2023-03-02T03:34:31;3.92;;;2.05;;
71083;SDS011;58741;52.672;13.548;2023-03-02T03:36:58;2.95;;;1.70;;
71083;SDS011;58741;52.672;13.548;2023-03-02T03:39:27;6.28;;;2.75;;
71083;SDS011;58741;52.672;13.548;2023-03-02T03:41:55;5.15;;;2.08;;
71083;SDS011;58741;52.672;13.548;2023-03-02T03:44:21;3.35;;;2.22;;
71083;SDS011;58741;52.672;13.548;2023-03-02T03:46:48;6.30;;;3.15;;
71083;SDS011;58741;52.672;13.548;2023-03-02T03:49:14;6.18;;;2.05;;
71083;SDS011;58741;52.672;13.548;2023-03-02T03:51:40;4.38;;;2.05;;
71083;SDS011;58741;52.672;13.548;2023-03-02T03:54:06;7.60;;;2.45;;
71083;SDS011;58741;52.672;13.548;2023-03-02T03:56:37;4.20;;;2.17;;
71083;SDS011;58741;52.672;13.548;2023-03-02T03:59:06;7.00;;;2.60;;
71083;SDS011;58741;52.672;13.548;2023-03-02T04:01:49;7.88;;;2.80;;
71083;SDS011;58741;52.672;13.548;2023-03-02T04:04:19;8.10;;;1.73;;
71083;SDS011;58741;52.672;13.548;2023-03-02T04:06:47;5.55;;;2.92;;
71083;SDS011;58741;52.672;13.548;2023-03-02T04:09:13;3.25;;;2.30;;
71083;SDS011;58741;52.672;13.548;2023-03-02T04:11:42;5.43;;;2.53;;
71083;SDS011;58741;52.672;13.548;2023-03-02T04:14:11;4.85;;;2.45;;
71083;SDS011;58741;52.672;13.548;2023-03-02T04:16:37;4.10;;;2.47;;
71083;SDS011;58741;52.672;13.548;2023-03-02T04:19:04;4.57;;;2.65;;
71083;SDS011;58741;52.672;13.548;2023-03-02T04:21:35;6.55;;;2.05;;
71083;SDS011;58741;52.672;13.548;2023-03-02T04:24:05;4.90;;;2.88;;
71083;SDS011;58741;52.672;13.548;2023-03-02T04:26:33;6.47;;;2.95;;
71083;SDS011;58741;52.672;13.548;2023-03-02T04:29:01;3.92;;;2.60;;
71083;SDS011;58741;52.672;13.548;2023-03-02T04:31:27;3.97;;;2.47;;
71083;SDS011;58741;52.672;13.548;2023-03-02T04:33:56;4.82;;;2.10;;
71083;SDS011;58741;52.672;13.548;2023-03-02T04:36:22;4.47;;;2.95;;
71083;SDS011;58741;52.672;13.548;2023-03-02T04:38:48;4.05;;;2.22;;
71083;SDS011;58741;52.672;13.548;2023-03-02T04:41:14;10.45;;;2.90;;
71083;SDS011;58741;52.672;13.548;2023-03-02T04:43:40;5.40;;;2.47;;
71083;SDS011;58741;52.672;13.548;2023-03-02T04:46:06;2.35;;;2.10;;
71083;SDS011;58741;52.672;13.548;2023-03-02T04:48:38;7.70;;;2.90;;
71083;SDS011;58741;52.672;13.548;2023-03-02T04:53:02;5.63;;;3.08;;
71083;SDS011;58741;52.672;13.548;2023-03-02T04:55:28;11.23;;;3.05;;
71083;SDS011;58741;52.672;13.548;2023-03-02T04:57:54;5.97;;;3.17;;
71083;SDS011;58741;52.672;13.548;2023-03-02T05:00:19;7.40;;;2.80;;
71083;SDS011;58741;52.672;13.548;2023-03-02T05:02:45;4.15;;;2.13;;
71083;SDS011;58741;52.672;13.548;2023-03-02T05:05:18;3.70;;;2.65;;
71083;SDS011;58741;52.672;13.548;2023-03-02T05:07:47;6.85;;;2.92;;
71083;SDS011;58741;52.672;13.548;2023-03-02T05:10:13;5.10;;;3.13;;
71083;SDS011;58741;52.672;13.548;2023-03-02T05:12:39;7.40;;;3.60;;
71083;SDS011;58741;52.672;13.548;2023-03-02T05:15:25;8.88;;;3.22;;
71083;SDS011;58741;52.672;13.548;2023-03-02T05:17:52;7.15;;;3.25;;
71083;SDS011;58741;52.672;13.548;2023-03-02T05:20:18;5.47;;;3.03;;
71083;SDS011;58741;52.672;13.548;2023-03-02T05:22:45;7.05;;;3.88;;
71083;SDS011;58741;52.672;13.548;2023-03-02T05:25:11;5.50;;;2.65;;
71083;SDS011;58741;52.672;13.548;2023-03-02T05:27:36;3.42;;;2.08;;
71083;SDS011;58741;52.672;13.548;2023-03-02T05:30:03;3.25;;;1.85;;
71083;SDS011;58741;52.672;13.548;2023-03-02T05:32:30;6.05;;;2.75;;
71083;SDS011;58741;52.672;13.548;2023-03-02T05:34:55;3.97;;;2.30;;
71083;SDS011;58741;52.672;13.548;2023-03-02T05:37:21;5.00;;;2.40;;
71083;SDS011;58741;52.672;13.548;2023-03-02T05:39:47;7.18;;;3.05;;
71083;SDS011;58741;52.672;13.548;2023-03-02T05:42:12;6.38;;;2.65;;
71083;SDS011;58741;52.672;13.548;2023-03-02T05:44:38;3.83;;;2.45;;
71083;SDS011;58741;52.672;13.548;2023-03-02T05:47:04;12.18;;;2.53;;
71083;SDS011;58741;52.672;13.548;2023-03-02T05:49:30;3.55;;;2.58;;
71083;SDS011;58741;52.672;13.548;2023-03-02T05:51:55;4.97;;;2.38;;
71083;SDS011;58741;52.672;13.548;2023-03-02T05:54:21;4.68;;;2.15;;
71083;SDS011;58741;52.672;13.548;2023-03-02T05:56:46;6.75;;;2.83;;
71083;SDS011;58741;52.672;13.548;2023-03-02T05:59:12;3.72;;;1.90;;
71083;SDS011;58741;52.672;13.548;2023-03-02T06:01:38;2.97;;;2.38;;
71083;SDS011;58741;52.672;13.548;2023-03-02T06:04:03;4.43;;;2.13;;
71083;SDS011;58741;52.672;13.548;2023-03-02T06:06:29;3.50;;;2.38;;
71083;SDS011;58741;52.672;13.548;2023-03-02T06:08:55;6.40;;;2.92;;
71083;SDS011;58741;52.672;13.548;2023-03-02T06:11:21;4.70;;;2.45;;
71083;SDS011;58741;52.672;13.548;2023-03-02T06:13:46;5.03;;;2.78;;
71083;SDS011;58741;52.672;13.548;2023-03-02T06:16:12;4.75;;;1.83;;
71083;SDS011;58741;52.672;13.548;2023-03-02T06:18:37;2.33;;;1.70;;
71083;SDS011;58741;52.672;13.548;2023-03-02T06:21:03;2.97;;;1.63;;
71083;SDS011;58741;52.672;13.548;2023-03-02T06:23:29;8.50;;;2.63;;
71083;SDS011;58741;52.672;13.548;2023-03-02T06:25:55;6.65;;;3.80;;
71083;SDS011;58741;52.672;13.548;2023-03-02T06:28:22;12.52;;;4.53;;
71083;SDS011;58741;52.672;13.548;2023-03-02T06:30:49;12.95;;;4.57;;
71083;SDS011;58741;52.672;13.548;2023-03-02T06:33:16;7.35;;;4.00;;
71083;SDS011;58741;52.672;13.548;2023-03-02T06:35:43;6.50;;;3.70;;
71083;SDS011;58741;52.672;13.548;2023-03-02T06:38:09;7.68;;;4.68;;
71083;SDS011;58741;52.672;13.548;2023-03-02T06:40:34;4.32;;;2.45;;
71083;SDS011;58741;52.672;13.548;2023-03-02T06:43:00;4.15;;;2.95;;
71083;SDS011;58741;52.672;13.548;2023-03-02T06:45:26;5.15;;;2.45;;
71083;SDS011;58741;52.672;13.548;2023-03-02T06:47:53;3.42;;;2.58;;
71083;SDS011;58741;52.672;13.548;2023-03-02T06:50:19;5.80;;;3.10;;
71083;SDS011;58741;52.672;13.548;2023-03-02T06:52:44;6.63;;;2.33;;
71083;SDS011;58741;52.672;13.548;2023-03-02T06:55:10;3.17;;;2.30;;
71083;SDS011;58741;52.672;13.548;2023-03-02T06:57:36;6.00;;;2.42;;
71083;SDS011;58741;52.672;13.548;2023-03-02T07:00:08;3.55;;;2.05;;
71083;SDS011;58741;52.672;13.548;2023-03-02T07:02:38;9.05;;;2.88;;
71083;SDS011;58741;52.672;13.548;2023-03-02T07:05:04;9.38;;;2.50;;
71083;SDS011;58741;52.672;13.548;2023-03-02T07:07:30;8.63;;;2.55;;
71083;SDS011;58741;52.672;13.548;2023-03-02T07:09:56;4.15;;;2.30;;
71083;SDS011;58741;52.672;13.548;2023-03-02T07:12:21;4.10;;;2.20;;
71083;SDS011;58741;52.672;13.548;2023-03-02T07:14:47;4.75;;;2.30;;
71083;SDS011;58741;52.672;13.548;2023-03-02T07:17:12;4.72;;;2.50;;
71083;SDS011;58741;52.672;13.548;2023-03-02T07:19:38;7.03;;;2.25;;
71083;SDS011;58741;52.672;13.548;2023-03-02T07:22:04;4.18;;;1.90;;
71083;SDS011;58741;52.672;13.548;2023-03-02T07:24:30;2.63;;;1.67;;
71083;SDS011;58741;52.672;13.548;2023-03-02T07:26:56;5.53;;;2.42;;
71083;SDS011;58741;52.672;13.548;2023-03-02T07:29:21;2.55;;;1.92;;
71083;SDS011;58741;52.672;13.548;2023-03-02T07:31:47;6.07;;;3.05;;
71083;SDS011;58741;52.672;13.548;2023-03-02T07:34:13;8.77;;;3.97;;
71083;SDS011;58741;52.672;13.548;2023-03-02T07:36:41;5.45;;;3.17;;
71083;SDS011;58741;52.672;13.548;2023-03-02T07:39:07;11.38;;;3.45;;
71083;SDS011;58741;52.672;13.548;2023-03-02T07:41:32;3.88;;;2.80;;
71083;SDS011;58741;52.672;13.548;2023-03-02T07:43:58;6.30;;;3.42;;
71083;SDS011;58741;52.672;13.548;2023-03-02T07:46:24;4.22;;;2.83;;
71083;SDS011;58741;52.672;13.548;2023-03-02T07:48:49;4.00;;;2.60;;
71083;SDS011;58741;52.672;13.548;2023-03-02T07:51:15;4.45;;;2.45;;
71083;SDS011;58741;52.672;13.548;2023-03-02T07:53:41;3.45;;;1.73;;
71083;SDS011;58741;52.672;13.548;2023-03-02T07:56:07;3.15;;;2.08;;
71083;SDS011;58741;52.672;13.548;2023-03-02T07:58:34;4.85;;;2.45;;
71083;SDS011;58741;52.672;13.548;2023-03-02T08:00:59;3.47;;;1.80;;
71083;SDS011;58741;52.672;13.548;2023-03-02T08:03:25;4.57;;;2.60;;
71083;SDS011;58741;52.672;13.548;2023-03-02T08:05:51;2.33;;;1.63;;
71083;SDS011;58741;52.672;13.548;2023-03-02T08:08:16;2.60;;;1.55;;
71083;SDS011;58741;52.672;13.548;2023-03-02T08:10:42;2.67;;;2.10;;
71083;SDS011;58741;52.672;13.548;2023-03-02T08:13:07;4.38;;;1.80;;
71083;SDS011;58741;52.672;13.548;2023-03-02T08:15:33;3.70;;;2.25;;
71083;SDS011;58741;52.672;13.548;2023-03-02T08:17:58;4.90;;;2.05;;
71083;SDS011;58741;52.672;13.548;2023-03-02T08:20:24;3.72;;;2.10;;
71083;SDS011;58741;52.672;13.548;2023-03-02T08:22:50;4.65;;;2.63;;
71083;SDS011;58741;52.672;13.548;2023-03-02T08:25:16;3.78;;;1.92;;
71083;SDS011;58741;52.672;13.548;2023-03-02T08:27:42;3.20;;;1.70;;
71083;SDS011;58741;52.672;13.548;2023-03-02T08:30:08;3.88;;;2.30;;
71083;SDS011;58741;52.672;13.548;2023-03-02T08:32:35;4.30;;;1.65;;
71083;SDS011;58741;52.672;13.548;2023-03-02T08:35:01;3.83;;;2.10;;
71083;SDS011;58741;52.672;13.548;2023-03-02T08:37:27;3.17;;;1.98;;
71083;SDS011;58741;52.672;13.548;2023-03-02T08:39:52;6.72;;;2.20;;
71083;SDS011;58741;52.672;13.548;2023-03-02T08:42:18;5.00;;;2.35;;
71083;SDS011;58741;52.672;13.548;2023-03-02T08:44:44;3.97;;;2.47;;
71083;SDS011;58741;52.672;13.548;2023-03-02T08:47:09;3.83;;;2.13;;
71083;SDS011;58741;52.672;13.548;2023-03-02T08:49:35;3.70;;;2.17;;
71083;SDS011;58741;52.672;13.548;2023-03-02T08:52:04;5.70;;;2.67;;
71083;SDS011;58741;52.672;13.548;2023-03-02T08:54:30;2.55;;;1.98;;
71083;SDS011;58741;52.672;13.548;2023-03-02T08:56:58;2.97;;;2.13;;
71083;SDS011;58741;52.672;13.548;2023-03-02T08:59:25;5.15;;;2.55;;
71083;SDS011;58741;52.672;13.548;2023-03-02T09:01:51;3.40;;;1.65;;
71083;SDS011;58741;52.672;13.548;2023-03-02T09:04:16;3.92;;;2.47;;
71083;SDS011;58741;52.672;13.548;2023-03-02T09:06:43;3.70;;;2.33;;
71083;SDS011;58741;52.672;13.548;2023-03-02T09:09:09;4.35;;;2.47;;
71083;SDS011;58741;52.672;13.548;2023-03-02T09:11:36;2.42;;;1.50;;
71083;SDS011;58741;52.672;13.548;2023-03-02T09:14:02;6.13;;;3.05;;
71083;SDS011;58741;52.672;13.548;2023-03-02T09:16:29;3.90;;;2.53;;
71083;SDS011;58741;52.672;13.548;2023-03-02T09:18:56;5.05;;;2.50;;
71083;SDS011;58741;52.672;13.548;2023-03-02T09:21:21;6.28;;;2.55;;
71083;SDS011;58741;52.672;13.548;2023-03-02T09:23:47;3.97;;;2.55;;
71083;SDS011;58741;52.672;13.548;2023-03-02T09:26:17;4.93;;;2.75;;
71083;SDS011;58741;52.672;13.548;2023-03-02T09:28:43;3.90;;;2.30;;
71083;SDS011;58741;52.672;13.548;2023-03-02T09:31:09;5.80;;;2.88;;
71083;SDS011;58741;52.672;13.548;2023-03-02T09:33:35;4.15;;;2.33;;
71083;SDS011;58741;52.672;13.548;2023-03-02T09:36:08;5.82;;;2.88;;
71083;SDS011;58741;52.672;13.548;2023-03-02T09:38:36;6.35;;;2.25;;
71083;SDS011;58741;52.672;13.548;2023-03-02T09:46:59;3.22;;;2.17;;
71083;SDS011;58741;52.672;13.548;2023-03-02T09:52:20;5.45;;;2.40;;
71083;SDS011;58741;52.672;13.548;2023-03-02T09:54:52;2.72;;;1.67;;
71083;SDS011;58741;52.672;13.548;2023-03-02T09:57:20;5.53;;;2.15;;
71083;SDS011;58741;52.672;13.548;2023-03-02T09:59:49;6.10;;;2.17;;
71083;SDS011;58741;52.672;13.548;2023-03-02T10:02:25;4.18;;;2.28;;
71083;SDS011;58741;52.672;13.548;2023-03-02T10:04:56;5.07;;;2.50;;
71083;SDS011;58741;52.672;13.548;2023-03-02T10:07:28;9.50;;;2.80;;
71083;SDS011;58741;52.672;13.548;2023-03-02T10:10:22;16.25;;;3.78;;
71083;SDS011;58741;52.672;13.548;2023-03-02T10:15:40;6.93;;;2.72;;
71083;SDS011;58741;52.672;13.548;2023-03-02T10:18:12;6.03;;;2.83;;
71083;SDS011;58741;52.672;13.548;2023-03-02T10:20:59;2.63;;;2.20;;
71083;SDS011;58741;52.672;13.548;2023-03-02T10:31:41;5.35;;;2.95;;
71083;SDS011;58741;52.672;13.548;2023-03-02T10:34:10;5.55;;;3.22;;
71083;SDS011;58741;52.672;13.548;2023-03-02T10:36:36;5.55;;;2.90;;
71083;SDS011;58741;52.672;13.548;2023-03-02T10:39:11;6.65;;;3.13;;
71083;SDS011;58741;52.672;13.548;2023-03-02T10:41:42;5.05;;;2.72;;
71083;SDS011;58741;52.672;13.548;2023-03-02T10:46:45;5.40;;;3.00;;
71083;SDS011;58741;52.672;13.548;2023-03-02T10:49:24;3.38;;;2.08;;
71083;SDS011;58741;52.672;13.548;2023-03-02T10:51:59;4.72;;;2.80;;
71083;SDS011;58741;52.672;13.548;2023-03-02T10:54:38;5.13;;;3.13;;
71083;SDS011;58741;52.672;13.548;2023-03-02T10:57:16;8.35;;;3.17;;
71083;SDS011;58741;52.672;13.548;2023-03-02T10:59:57;5.80;;;3.33;;
71083;SDS011;58741;52.672;13.548;2023-03-02T11:03:04;4.65;;;2.67;;
71083;SDS011;58741;52.672;13.548;2023-03-02T11:05:44;4.00;;;2.25;;
71083;SDS011;58741;52.672;13.548;2023-03-02T11:08:20;5.82;;;2.45;;
71083;SDS011;58741;52.672;13.548;2023-03-02T11:13:30;7.95;;;3.35;;
71083;SDS011;58741;52.672;13.548;2023-03-02T11:15:59;2.22;;;1.58;;
71083;SDS011;58741;52.672;13.548;2023-03-02T11:21:09;5.10;;;2.97;;
71083;SDS011;58741;52.672;13.548;2023-03-02T11:26:12;4.63;;;3.00;;
71083;SDS011;58741;52.672;13.548;2023-03-02T11:31:46;6.00;;;3.17;;
71083;SDS011;58741;52.672;13.548;2023-03-02T11:34:25;3.58;;;2.42;;
71083;SDS011;58741;52.672;13.548;2023-03-02T11:42:21;4.03;;;2.45;;
71083;SDS011;58741;52.672;13.548;2023-03-02T11:44:50;7.22;;;3.17;;
71083;SDS011;58741;52.672;13.548;2023-03-02T11:47:16;4.15;;;2.40;;
71083;SDS011;58741;52.672;13.548;2023-03-02T11:49:47;4.00;;;2.95;;
71083;SDS011;58741;52.672;13.548;2023-03-02T11:52:19;4.13;;;2.22;;
71083;SDS011;58741;52.672;13.548;2023-03-02T11:54:54;4.82;;;2.58;;
71083;SDS011;58741;52.672;13.548;2023-03-02T11:57:33;5.47;;;2.97;;
71083;SDS011;58741;52.672;13.548;2023-03-02T12:00:03;4.28;;;2.40;;
71083;SDS011;58741;52.672;13.548;2023-03-02T12:02:37;3.30;;;2.42;;
71083;SDS011;58741;52.672;13.548;2023-03-02T12:05:05;3.03;;;2.38;;
71083;SDS011;58741;52.672;13.548;2023-03-02T12:07:54;3.00;;;1.70;;
71083;SDS011;58741;52.672;13.548;2023-03-02T12:10:23;3.75;;;2.00;;
71083;SDS011;58741;52.672;13.548;2023-03-02T12:13:05;5.28;;;2.20;;
71083;SDS011;58741;52.672;13.548;2023-03-02T12:15:47;4.13;;;2.28;;
71083;SDS011;58741;52.672;13.548;2023-03-02T12:20:44;3.92;;;2.45;;
71083;SDS011;58741;52.672;13.548;2023-03-02T12:23:22;3.13;;;2.20;;
71083;SDS011;58741;52.672;13.548;2023-03-02T12:25:48;4.18;;;2.60;;
71083;SDS011;58741;52.672;13.548;2023-03-02T12:28:32;5.55;;;2.45;;
71083;SDS011;58741;52.672;13.548;2023-03-02T12:31:01;3.10;;;1.88;;
71083;SDS011;58741;52.672;13.548;2023-03-02T12:33:36;4.20;;;2.50;;
71083;SDS011;58741;52.672;13.548;2023-03-02T12:36:11;4.05;;;2.80;;
71083;SDS011;58741;52.672;13.548;2023-03-02T12:38:51;4.97;;;2.40;;
71083;SDS011;58741;52.672;13.548;2023-03-02T12:41:53;3.33;;;2.45;;
71083;SDS011;58741;52.672;13.548;2023-03-02T12:44:34;5.00;;;2.75;;
71083;SDS011;58741;52.672;13.548;2023-03-02T12:47:18;4.72;;;2.67;;
71083;SDS011;58741;52.672;13.548;2023-03-02T12:49:52;3.88;;;2.50;;
71083;SDS011;58741;52.672;13.548;2023-03-02T12:52:28;2.47;;;1.98;;
71083;SDS011;58741;52.672;13.548;2023-03-02T12:57:36;6.35;;;2.63;;
71083;SDS011;58741;52.672;13.548;2023-03-02T13:00:03;6.22;;;2.08;;
71083;SDS011;58741;52.672;13.548;2023-03-02T13:02:31;3.72;;;2.33;;
71083;SDS011;58741;52.672;13.548;2023-03-02T13:05:00;2.00;;;1.77;;
71083;SDS011;58741;52.672;13.548;2023-03-02T13:07:35;3.88;;;2.28;;
71083;SDS011;58741;52.672;13.548;2023-03-02T13:10:19;2.33;;;1.90;;
71083;SDS011;58741;52.672;13.548;2023-03-02T13:12:55;6.72;;;3.05;;
71083;SDS011;58741;52.672;13.548;2023-03-02T13:15:22;5.68;;;2.78;;
71083;SDS011;58741;52.672;13.548;2023-03-02T13:17:52;7.30;;;3.42;;
71083;SDS011;58741;52.672;13.548;2023-03-02T13:20:24;5.57;;;3.30;;
71083;SDS011;58741;52.672;13.548;2023-03-02T13:22:52;7.80;;;3.80;;
71083;SDS011;58741;52.672;13.548;2023-03-02T13:25:20;11.32;;;4.22;;
71083;SDS011;58741;52.672;13.548;2023-03-02T13:27:54;5.13;;;3.67;;
71083;SDS011;58741;52.672;13.548;2023-03-02T13:30:27;5.95;;;3.33;;
71083;SDS011;58741;52.672;13.548;2023-03-02T13:32:58;8.45;;;4.28;;
71083;SDS011;58741;52.672;13.548;2023-03-02T13:35:44;12.75;;;4.95;;
71083;SDS011;58741;52.672;13.548;2023-03-02T13:38:17;9.85;;;4.50;;
71083;SDS011;58741;52.672;13.548;2023-03-02T13:40:46;7.60;;;4.68;;
71083;SDS011;58741;52.672;13.548;2023-03-02T13:43:21;12.02;;;5.60;;
71083;SDS011;58741;52.672;13.548;2023-03-02T13:45:57;9.95;;;5.78;;
71083;SDS011;58741;52.672;13.548;2023-03-02T13:48:24;9.88;;;5.22;;
71083;SDS011;58741;52.672;13.548;2023-03-02T13:50:53;11.38;;;5.47;;
71083;SDS011;58741;52.672;13.548;2023-03-02T13:53:28;9.50;;;4.82;;
71083;SDS011;58741;52.672;13.548;2023-03-02T13:55:56;11.48;;;5.38;;
71083;SDS011;58741;52.672;13.548;2023-03-02T13:58:24;12.95;;;5.63;;
71083;SDS011;58741;52.672;13.548;2023-03-02T14:00:51;15.23;;;5.90;;
71083;SDS011;58741;52.672;13.548;2023-03-02T14:03:24;9.27;;;5.35;;
71083;SDS011;58741;52.672;13.548;2023-03-02T14:05:52;10.07;;;4.88;;
71083;SDS011;58741;52.672;13.548;2023-03-02T14:08:18;7.60;;;5.07;;
71083;SDS011;58741;52.672;13.548;2023-03-02T14:10:44;8.18;;;4.63;;
71083;SDS011;58741;52.672;13.548;2023-03-02T14:13:14;13.70;;;4.95;;
71083;SDS011;58741;52.672;13.548;2023-03-02T14:15:46;14.45;;;6.00;;
71083;SDS011;58741;52.672;13.548;2023-03-02T14:21:08;8.82;;;4.68;;
71083;SDS011;58741;52.672;13.548;2023-03-02T14:23:36;8.95;;;4.75;;
71083;SDS011;58741;52.672;13.548;2023-03-02T14:26:04;9.45;;;5.53;;
71083;SDS011;58741;52.672;13.548;2023-03-02T14:28:47;10.48;;;4.97;;
71083;SDS011;58741;52.672;13.548;2023-03-02T14:31:12;10.07;;;5.07;;
71083;SDS011;58741;52.672;13.548;2023-03-02T14:33:38;11.98;;;4.90;;
71083;SDS011;58741;52.672;13.548;2023-03-02T14:36:04;10.05;;;3.35;;
71083;SDS011;58741;52.672;13.548;2023-03-02T14:38:30;10.57;;;4.70;;
71083;SDS011;58741;52.672;13.548;2023-03-02T14:40:56;6.55;;;3.88;;
71083;SDS011;58741;52.672;13.548;2023-03-02T14:43:22;7.60;;;3.88;;
71083;SDS011;58741;52.672;13.548;2023-03-02T14:45:49;4.70;;;3.30;;
71083;SDS011;58741;52.672;13.548;2023-03-02T14:48:16;11.57;;;4.07;;
71083;SDS011;58741;52.672;13.548;2023-03-02T14:50:42;12.05;;;5.60;;
71083;SDS011;58741;52.672;13.548;2023-03-02T14:53:14;17.33;;;6.80;;
71083;SDS011;58741;52.672;13.548;2023-03-02T14:55:47;7.72;;;4.10;;
71083;SDS011;58741;52.672;13.548;2023-03-02T14:58:14;7.57;;;4.15;;
71083;SDS011;58741;52.672;13.548;2023-03-02T15:00:42;9.88;;;4.47;;
71083;SDS011;58741;52.672;13.548;2023-03-02T15:03:12;11.75;;;4.68;;
71083;SDS011;58741;52.672;13.548;2023-03-02T15:05:40;7.90;;;3.83;;
71083;SDS011;58741;52.672;13.548;2023-03-02T15:08:13;8.85;;;4.13;;
71083;SDS011;58741;52.672;13.548;2023-03-02T15:10:40;6.72;;;3.45;;
71083;SDS011;58741;52.672;13.548;2023-03-02T15:13:09;9.75;;;4.35;;
71083;SDS011;58741;52.672;13.548;2023-03-02T15:15:36;7.88;;;4.20;;
71083;SDS011;58741;52.672;13.548;2023-03-02T15:18:02;12.00;;;4.28;;
71083;SDS011;58741;52.672;13.548;2023-03-02T15:20:28;8.13;;;3.72;;
71083;SDS011;58741;52.672;13.548;2023-03-02T15:22:54;7.90;;;4.00;;
71083;SDS011;58741;52.672;13.548;2023-03-02T15:25:20;7.97;;;4.10;;
71083;SDS011;58741;52.672;13.548;2023-03-02T15:27:48;8.30;;;4.43;;
71083;SDS011;58741;52.672;13.548;2023-03-02T15:30:14;5.97;;;2.95;;
71083;SDS011;58741;52.672;13.548;2023-03-02T15:32:40;5.97;;;3.25;;
71083;SDS011;58741;52.672;13.548;2023-03-02T15:35:05;8.27;;;3.78;;